Time;durP1;ratioP1;P1;durP2;ratioP2;P2;SDS_P1;SDS_P2;PMS_P1;PMS_P2;Temp;Humidity;BMP_temperature;BMP_pressure;BME280_temperature;BME280_humidity;BME280_pressure;Samples;Min_cycle;Max_cycle;Signal;HPM_P1;HPM_P2
2023/09/13 00:00:48;;;;;;;42.30;27.23;;;19.60;99.90;;;;;;5014760;28;20416;-62
2023/09/13 00:03:14;;;;;;;35.20;24.10;;;19.50;99.90;;;;;;5018609;28;20516;-63
2023/09/13 00:05:42;;;;;;;33.13;22.85;;;19.50;99.90;;;;;;5026236;28;20419;-63
2023/09/13 00:08:09;;;;;;;33.65;22.67;;;19.30;99.90;;;;;;5019662;28;20421;-62
2023/09/13 00:10:36;;;;;;;31.25;22.33;;;19.50;99.90;;;;;;5026106;28;20429;-62
2023/09/13 00:13:03;;;;;;;32.30;22.37;;;19.50;99.90;;;;;;5023872;28;20414;-62
2023/09/13 00:15:31;;;;;;;33.27;22.73;;;19.40;99.90;;;;;;5026146;28;20428;-63
2023/09/13 00:17:57;;;;;;;34.22;24.40;;;19.80;99.90;;;;;;5022645;28;20472;-63
2023/09/13 00:20:24;;;;;;;33.75;25.40;;;19.50;99.90;;;;;;5022810;28;20791;-62
2023/09/13 00:22:51;;;;;;;43.75;30.77;;;19.40;99.90;;;;;;5018467;28;20424;-62
2023/09/13 00:25:17;;;;;;;49.13;33.42;;;19.50;99.90;;;;;;5021853;28;20418;-62
2023/09/13 00:27:44;;;;;;;56.23;35.83;;;19.90;99.90;;;;;;5020099;28;20488;-62
2023/09/13 00:30:11;;;;;;;60.92;38.78;;;19.20;99.90;;;;;;5024896;28;20411;-62
2023/09/13 00:32:39;;;;;;;60.65;40.25;;;19.20;99.90;;;;;;5021158;28;20427;-62
2023/09/13 00:35:06;;;;;;;62.10;42.10;;;19.40;99.90;;;;;;5023805;28;20419;-63
2023/09/13 00:37:32;;;;;;;69.45;42.47;;;19.30;99.90;;;;;;5020557;28;20443;-62
2023/09/13 00:39:59;;;;;;;69.00;43.72;;;19.50;99.90;;;;;;5025360;28;20750;-62
2023/09/13 00:42:25;;;;;;;69.00;42.55;;;19.40;99.90;;;;;;5026018;28;20492;-63
2023/09/13 00:44:52;;;;;;;70.43;45.58;;;19.30;99.90;;;;;;5024577;28;20419;-62
2023/09/13 00:47:19;;;;;;;72.35;46.13;;;19.20;99.90;;;;;;5020636;28;20414;-63
2023/09/13 00:49:48;;;;;;;76.57;47.67;;;19.50;99.90;;;;;;5025367;28;20844;-62
2023/09/13 00:52:15;;;;;;;79.88;47.63;;;19.40;99.90;;;;;;5018429;28;20515;-62
2023/09/13 00:54:42;;;;;;;80.03;48.33;;;20.30;99.90;;;;;;5007887;28;20428;-62
2023/09/13 00:57:09;;;;;;;77.07;48.40;;;19.60;99.90;;;;;;5014470;28;20548;-62
2023/09/13 00:59:36;;;;;;;79.50;48.97;;;19.10;99.90;;;;;;5011589;28;20415;-63
2023/09/13 01:02:02;;;;;;;92.00;52.72;;;19.50;99.90;;;;;;5016355;28;20413;-63
2023/09/13 01:04:31;;;;;;;89.32;50.72;;;19.30;99.90;;;;;;5015292;28;20739;-62
2023/09/13 01:06:59;;;;;;;86.63;52.45;;;19.60;99.90;;;;;;5016731;28;20424;-62
2023/09/13 01:09:26;;;;;;;92.60;54.13;;;19.30;99.90;;;;;;5015843;28;20877;-64
2023/09/13 01:11:53;;;;;;;89.78;53.10;;;19.50;99.90;;;;;;5012502;28;20479;-64
2023/09/13 01:14:21;;;;;;;94.10;55.55;;;19.30;99.90;;;;;;5016544;28;20415;-63
2023/09/13 01:16:55;;;;;;;97.32;56.45;;;19.40;99.90;;;;;;5013669;28;20503;-64
2023/09/13 01:19:41;;;;;;;96.25;57.00;;;19.40;99.90;;;;;;5017730;28;20419;-64
2023/09/13 01:22:33;;;;;;;95.57;58.75;;;19.30;99.90;;;;;;5016247;28;20495;-64
2023/09/13 01:25:31;;;;;;;101.18;60.13;;;19.20;99.90;;;;;;5019255;28;20509;-63
2023/09/13 01:28:12;;;;;;;97.85;57.53;;;19.30;99.90;;;;;;5023955;28;20419;-63
2023/09/13 01:30:42;;;;;;;98.20;57.05;;;19.40;99.90;;;;;;5023561;28;20824;-64
2023/09/13 01:33:08;;;;;;;99.45;57.97;;;19.40;99.90;;;;;;5021414;28;20410;-64
2023/09/13 01:35:35;;;;;;;95.18;57.40;;;19.50;99.90;;;;;;5025463;28;20412;-64
2023/09/13 01:38:02;;;;;;;90.30;54.40;;;19.20;99.90;;;;;;5027559;28;20786;-64
2023/09/13 01:40:33;;;;;;;91.80;56.63;;;19.30;99.90;;;;;;5025213;28;20944;-63
2023/09/13 01:43:02;;;;;;;92.78;55.72;;;19.40;99.90;;;;;;5027011;28;20789;-64
2023/09/13 01:45:31;;;;;;;88.55;54.92;;;19.60;99.90;;;;;;5024419;28;20415;-64
2023/09/13 01:48:00;;;;;;;90.15;55.80;;;19.20;99.90;;;;;;5026407;28;20560;-63
2023/09/13 01:50:27;;;;;;;87.68;55.22;;;19.90;99.90;;;;;;5024839;28;20419;-64
2023/09/13 01:52:54;;;;;;;91.20;54.05;;;19.50;99.90;;;;;;5029191;28;20435;-63
2023/09/13 01:55:21;;;;;;;82.47;53.33;;;;;;;;;;5015896;28;20411;-64
2023/09/13 01:57:47;;;;;;;83.25;52.92;;;19.10;99.90;;;;;;5022872;28;20418;-64
2023/09/13 02:00:15;;;;;;;75.45;50.83;;;19.30;99.90;;;;;;5026577;28;20476;-64
2023/09/13 02:02:41;;;;;;;78.50;51.42;;;19.50;99.90;;;;;;5024918;28;20890;-63
2023/09/13 02:05:10;;;;;;;80.38;51.85;;;;;;;;;;5026934;28;20411;-64
2023/09/13 02:07:37;;;;;;;81.07;50.83;;;;;;;;;;5024769;28;20420;-63
2023/09/13 02:10:04;;;;;;;80.72;49.95;;;;;;;;;;5025564;28;20831;-64
2023/09/13 02:12:31;;;;;;;80.35;50.60;;;;;;;;;;5023430;28;20939;-64
2023/09/13 02:14:58;;;;;;;78.32;50.15;;;;;;;;;;5026353;28;20419;-64
2023/09/13 02:17:25;;;;;;;79.00;49.80;;;;;;;;;;5022561;28;20479;-63
2023/09/13 02:19:52;;;;;;;83.43;50.35;;;;;;;;;;5010300;28;20843;-63
2023/09/13 02:22:20;;;;;;;79.07;49.57;;;;;;;;;;5017839;28;20490;-63
2023/09/13 02:24:47;;;;;;;88.03;53.28;;;;;;;;;;5014951;28;20533;-63
2023/09/13 02:27:14;;;;;;;85.28;51.35;;;;;;;;;;5021074;28;20500;-63
2023/09/13 02:29:41;;;;;;;85.65;50.20;;;;;;;;;;5027479;28;20423;-63
2023/09/13 02:32:08;;;;;;;76.78;47.75;;;;;;;;;;5023194;28;20430;-64
2023/09/13 02:34:35;;;;;;;80.63;48.43;;;;;;;;;;5026988;28;20470;-63
2023/09/13 02:37:02;;;;;;;77.53;46.55;;;;;;;;;;5026618;28;20861;-64
2023/09/13 02:39:38;;;;;;;81.88;49.28;;;;;;;;;;5016161;28;20481;-64
2023/09/13 02:42:05;;;;;;;98.70;54.67;;;;;;;;;;5019320;28;20912;-64
2023/09/13 02:44:32;;;;;;;98.47;52.33;;;;;;;;;;5020087;28;20411;-63
2023/09/13 02:46:59;;;;;;;107.10;54.53;;;;;;;;;;5017307;28;20407;-65
2023/09/13 02:49:26;;;;;;;104.70;52.95;;;;;;;;;;5028837;28;20415;-63
2023/09/13 02:51:53;;;;;;;108.50;55.38;;;;;;;;;;5022468;28;20462;-63
2023/09/13 02:54:21;;;;;;;107.47;55.17;;;;;;;;;;5022361;28;20422;-63
2023/09/13 02:56:52;;;;;;;105.65;53.95;;;;;;;;;;5017778;28;20427;-64
2023/09/13 02:59:20;;;;;;;104.95;54.00;;;;;;;;;;5025704;28;20494;-64
2023/09/13 03:01:47;;;;;;;109.13;55.13;;;;;;;;;;5026867;28;20506;-63
2023/09/13 03:04:14;;;;;;;102.75;54.40;;;;;;;;;;5025976;28;20411;-63
2023/09/13 03:06:41;;;;;;;104.63;54.63;;;;;;;;;;5025310;28;20471;-63
2023/09/13 03:09:08;;;;;;;103.43;53.28;;;;;;;;;;5026359;28;20415;-64
2023/09/13 03:11:36;;;;;;;103.82;54.72;;;;;;;;;;5021178;28;20458;-63
2023/09/13 03:14:05;;;;;;;117.57;57.23;;;;;;;;;;5023339;28;20415;-64
2023/09/13 03:16:32;;;;;;;116.07;56.97;;;;;;;;;;5018008;28;20419;-64
2023/09/13 03:18:59;;;;;;;123.53;59.38;;;;;;;;;;5026425;28;20956;-64
2023/09/13 03:21:27;;;;;;;128.13;58.53;;;;;;;;;;5019603;28;20411;-64
2023/09/13 03:23:55;;;;;;;119.53;56.45;;;;;;;;;;5024933;28;20477;-63
2023/09/13 03:26:22;;;;;;;134.00;60.42;;;;;;;;;;5018706;28;20502;-63
2023/09/13 03:28:50;;;;;;;131.13;60.63;;;;;;;;;;5023532;28;20469;-63
2023/09/13 03:31:19;;;;;;;124.22;59.17;;;;;;;;;;5022468;28;20469;-63
2023/09/13 03:33:47;;;;;;;129.23;60.80;;;;;;;;;;5015597;28;20483;-64
2023/09/13 03:36:15;;;;;;;121.97;59.37;;;;;;;;;;5023156;28;20509;-65
2023/09/13 03:38:43;;;;;;;115.53;57.80;;;;;;;;;;5018926;28;20419;-64
2023/09/13 03:41:10;;;;;;;108.57;54.72;;;;;;;;;;5020569;28;20881;-64
2023/09/13 03:43:37;;;;;;;107.50;54.90;;;;;;;;;;5023501;28;20432;-64
2023/09/13 03:46:05;;;;;;;104.60;53.60;;;;;;;;;;5025343;28;20888;-65
2023/09/13 03:48:34;;;;;;;109.05;54.38;;;;;;;;;;5023354;28;20573;-64
2023/09/13 03:51:01;;;;;;;110.80;54.03;;;;;;;;;;5025399;28;20832;-64
2023/09/13 03:53:28;;;;;;;111.07;55.10;;;;;;;;;;5021252;28;20459;-64
2023/09/13 03:55:56;;;;;;;116.38;56.17;;;;;;;;;;5020997;28;20415;-64
2023/09/13 03:58:24;;;;;;;108.40;53.80;;;;;;;;;;5019453;28;20508;-65
2023/09/13 04:00:51;;;;;;;97.45;49.35;;;;;;;;;;5020055;28;20820;-65
2023/09/13 04:03:18;;;;;;;87.57;46.72;;;;;;;;;;5021770;28;20417;-65
2023/09/13 04:05:46;;;;;;;81.57;44.78;;;;;;;;;;5023420;28;20837;-64
2023/09/13 04:08:13;;;;;;;85.45;46.20;;;;;;;;;;5022025;28;20415;-64
2023/09/13 04:10:40;;;;;;;84.05;45.70;;;;;;;;;;5026706;28;20856;-64
2023/09/13 04:13:07;;;;;;;83.25;44.60;;;;;;;;;;5021188;28;20977;-64
2023/09/13 04:15:35;;;;;;;84.68;43.83;;;;;;;;;;5026542;28;20419;-64
2023/09/13 04:18:03;;;;;;;85.07;44.65;;;;;;;;;;5022646;28;20947;-64
2023/09/13 04:20:30;;;;;;;85.68;45.50;;;;;;;;;;5024013;28;20451;-64
2023/09/13 04:22:59;;;;;;;91.40;44.30;;;;;;;;;;5021759;28;20832;-64
2023/09/13 04:25:26;;;;;;;87.80;44.30;;;;;;;;;;5017817;28;20415;-65
2023/09/13 04:27:53;;;;;;;83.50;44.88;;;;;;;;;;5020563;28;20885;-65
2023/09/13 04:30:20;;;;;;;82.70;42.77;;;;;;;;;;5023165;28;20452;-64
2023/09/13 04:32:47;;;;;;;81.38;42.13;;;;;;;;;;5021921;28;20454;-64
2023/09/13 04:35:15;;;;;;;89.10;44.20;;;;;;;;;;5025836;28;20423;-64
2023/09/13 04:37:43;;;;;;;87.63;43.88;;;;;;;;;;5021301;28;20417;-64
2023/09/13 04:40:13;;;;;;;90.43;44.47;;;;;;;;;;5025380;28;20976;-64
2023/09/13 04:42:42;;;;;;;92.93;46.23;;;;;;;;;;5020655;28;20419;-64
2023/09/13 04:45:09;;;;;;;92.78;45.00;;;;;;;;;;5025599;28;20825;-64
2023/09/13 04:47:37;;;;;;;95.32;44.80;;;;;;;;;;5020450;28;20983;-64
2023/09/13 04:50:05;;;;;;;93.63;46.67;;;;;;;;;;5026377;28;20950;-64
2023/09/13 04:52:32;;;;;;;102.05;47.70;;;;;;;;;;5019569;28;20797;-64
2023/09/13 04:54:59;;;;;;;89.47;46.28;;;;;;;;;;5022157;28;20419;-64
2023/09/13 04:57:27;;;;;;;99.50;48.78;;;;;;;;;;5015967;28;20456;-64
2023/09/13 04:59:55;;;;;;;113.88;51.45;;;;;;;;;;5023451;28;20406;-65
2023/09/13 05:02:22;;;;;;;120.47;51.75;;;;;;;;;;5026688;28;20417;-65
2023/09/13 05:04:49;;;;;;;121.20;53.15;;;;;;;;;;5031822;28;20963;-66
2023/09/13 05:07:16;;;;;;;132.15;55.13;;;;;;;;;;5024651;28;20419;-65
2023/09/13 05:09:43;;;;;;;121.03;53.60;;;;;;;;;;5026448;28;20439;-66
2023/09/13 05:12:10;;;;;;;123.50;56.63;;;;;;;;;;5027052;28;20431;-65
2023/09/13 05:14:42;;;;;;;127.18;55.47;;;;;;;;;;5026733;28;20429;-66
2023/09/13 05:17:09;;;;;;;124.03;55.72;;;;;;;;;;5024498;28;20452;-64
2023/09/13 05:19:36;;;;;;;117.20;55.33;;;;;;;;;;5026430;28;21001;-64
2023/09/13 05:22:03;;;;;;;123.53;55.45;;;;;;;;;;5025268;28;20493;-64
2023/09/13 05:24:30;;;;;;;105.20;50.63;;;;;;;;;;5026102;28;20412;-64
2023/09/13 05:26:57;;;;;;;120.35;55.70;;;;;;;;;;5018261;28;20421;-65
2023/09/13 05:29:24;;;;;;;134.45;58.15;;;;;;;;;;5025523;28;20413;-64
2023/09/13 05:31:52;;;;;;;125.82;56.42;;;;;;;;;;5020353;28;20830;-64
2023/09/13 05:34:19;;;;;;;117.13;56.43;;;;;;;;;;5016612;28;20470;-66
2023/09/13 05:36:46;;;;;;;118.88;54.70;;;;;;;;;;5020135;28;20963;-64
2023/09/13 05:39:14;;;;;;;121.88;56.50;;;;;;;;;;5020989;28;20420;-64
2023/09/13 05:41:42;;;;;;;123.55;56.67;;;;;;;;;;5020955;28;20419;-65
2023/09/13 05:44:10;;;;;;;125.40;57.55;;;;;;;;;;5025302;28;20422;-64
2023/09/13 05:46:37;;;;;;;125.82;57.28;;;;;;;;;;5017071;28;20501;-65
2023/09/13 05:49:05;;;;;;;131.45;57.15;;;;;;;;;;5020732;28;20469;-64
2023/09/13 05:51:32;;;;;;;135.88;58.50;;;;;;;;;;5022099;28;20845;-64
2023/09/13 05:53:59;;;;;;;126.78;57.00;;;;;;;;;;5022975;28;20832;-65
2023/09/13 05:56:26;;;;;;;128.60;57.47;;;;;;;;;;5018009;28;20423;-64
2023/09/13 05:58:53;;;;;;;120.00;55.78;;;;;;;;;;5014575;28;20419;-64
2023/09/13 06:01:22;;;;;;;120.93;54.95;;;;;;;;;;5013669;28;20907;-65
2023/09/13 06:03:49;;;;;;;111.57;54.57;;;;;;;;;;5021755;28;20463;-65
2023/09/13 06:06:17;;;;;;;114.38;52.13;;;;;;;;;;5012976;28;20424;-66
2023/09/13 06:08:44;;;;;;;108.87;51.47;;;;;;;;;;5020526;28;20424;-65
2023/09/13 06:11:12;;;;;;;101.30;49.47;;;;;;;;;;5019610;28;20895;-66
2023/09/13 06:13:39;;;;;;;97.68;49.85;;;;;;;;;;5016870;28;20895;-64
2023/09/13 06:16:06;;;;;;;105.65;50.15;;;;;;;;;;5020365;28;20473;-65
2023/09/13 06:18:33;;;;;;;99.47;49.17;;;;;;;;;;5021652;28;20417;-65
2023/09/13 06:21:00;;;;;;;98.22;48.72;;;;;;;;;;5022133;28;20909;-65
2023/09/13 06:23:35;;;;;;;100.93;48.60;;;;;;;;;;5018020;28;20423;-65
2023/09/13 06:26:02;;;;;;;95.17;49.20;;;;;;;;;;5008839;28;20420;-65
2023/09/13 06:28:29;;;;;;;96.78;49.10;;;;;;;;;;5017915;28;20452;-65
2023/09/13 06:30:57;;;;;;;91.55;46.83;;;;;;;;;;5010466;28;20505;-65
2023/09/13 06:33:24;;;;;;;95.60;48.40;;;;;;;;;;5018521;28;20432;-65
2023/09/13 06:35:51;;;;;;;101.18;48.92;;;;;;;;;;5010652;28;20416;-65
2023/09/13 06:38:18;;;;;;;93.85;47.40;;;;;;;;;;5024238;28;20419;-64
2023/09/13 06:40:48;;;;;;;93.63;47.95;;;;;;;;;;5015679;28;20893;-65
2023/09/13 06:43:15;;;;;;;94.03;47.55;;;;;;;;;;5021073;28;20424;-65
2023/09/13 06:45:43;;;;;;;92.72;47.53;;;;;;;;;;5011812;28;20423;-65
2023/09/13 06:48:10;;;;;;;97.63;48.53;;;;;;;;;;5015067;28;20424;-64
2023/09/13 06:50:37;;;;;;;97.00;47.75;;;;;;;;;;5016547;28;20428;-65
2023/09/13 06:53:04;;;;;;;89.18;45.67;;;;;;;;;;5015498;28;20436;-65
2023/09/13 06:55:32;;;;;;;82.35;45.17;;;;;;;;;;5007636;28;20420;-66
2023/09/13 06:58:02;;;;;;;88.07;46.35;;;;;;;;;;5020359;28;20902;-65
2023/09/13 07:00:29;;;;;;;90.50;47.10;;;;;;;;;;5022282;28;20427;-63
2023/09/13 07:02:56;;;;;;;71.28;40.15;;;;;;;;;;5016329;28;20427;-64
2023/09/13 07:05:23;;;;;;;72.43;40.80;;;;;;;;;;5014798;28;20891;-64
2023/09/13 07:07:50;;;;;;;69.20;41.00;;;;;;;;;;5013742;28;20525;-63
2023/09/13 07:10:17;;;;;;;68.88;40.67;;;;;;;;;;5016456;28;20421;-64
2023/09/13 07:12:44;;;;;;;66.57;39.47;;;;;;;;;;5017457;28;20518;-63
2023/09/13 07:15:13;;;;;;;72.07;41.17;;;;;;;;;;5019416;28;20463;-64
2023/09/13 07:17:40;;;;;;;68.90;40.47;;;;;;;;;;5024842;28;20433;-63
2023/09/13 07:20:07;;;;;;;73.25;42.45;;;;;;;;;;5022396;28;20422;-63
2023/09/13 07:22:34;;;;;;;73.13;42.97;;;;;;;;;;5018108;28;20418;-63
2023/09/13 07:25:04;;;;;;;74.65;42.15;;;;;;;;;;5013797;28;20956;-64
2023/09/13 07:27:31;;;;;;;69.22;41.25;;;;;;;;;;5013024;28;20456;-64
2023/09/13 07:29:58;;;;;;;74.93;41.55;;;;;;;;;;5018936;28;20418;-64
2023/09/13 07:32:26;;;;;;;69.68;40.45;;;;;;;;;;5010840;28;20427;-62
2023/09/13 07:34:54;;;;;;;72.43;41.53;;;;;;;;;;5018493;28;20417;-62
2023/09/13 07:37:21;;;;;;;72.57;42.65;;;;;;;;;;5013856;28;20494;-62
2023/09/13 07:39:48;;;;;;;79.25;44.38;;;;;;;;;;5011617;28;20424;-62
2023/09/13 07:42:15;;;;;;;75.68;43.35;;;;;;;;;;5012348;28;20421;-64
2023/09/13 07:44:42;;;;;;;75.55;44.80;;;;;;;;;;5010225;28;20420;-62
2023/09/13 07:47:09;;;;;;;78.75;45.60;;;;;;;;;;5017816;28;20458;-63
2023/09/13 07:49:37;;;;;;;78.25;45.13;;;;;;;;;;5014189;28;20436;-62
2023/09/13 07:52:04;;;;;;;72.05;43.17;;;;;;;;;;5014304;28;20487;-63
2023/09/13 07:54:31;;;;;;;73.80;42.57;;;;;;;;;;5016858;28;20434;-63
2023/09/13 07:56:58;;;;;;;71.45;42.08;;;;;;;;;;5014881;28;20436;-65
2023/09/13 07:59:26;;;;;;;76.07;44.90;;;;;;;;;;5015117;28;20421;-65
2023/09/13 08:01:53;;;;;;;72.95;42.70;;;;;;;;;;5016211;28;20423;-64
2023/09/13 08:04:20;;;;;;;65.95;42.47;;;;;;;;;;5016410;28;20424;-65
2023/09/13 08:06:48;;;;;;;65.70;41.08;;;;;;;;;;5014993;28;20422;-63
2023/09/13 08:09:16;;;;;;;67.80;41.88;;;;;;;;;;5016869;28;20479;-64
2023/09/13 08:11:43;;;;;;;66.67;40.80;;;;;;;;;;5015286;28;20510;-65
2023/09/13 08:14:10;;;;;;;65.65;39.83;;;;;;;;;;5013472;28;20492;-65
2023/09/13 08:16:37;;;;;;;65.25;39.15;;;;;;;;;;5014101;28;20482;-65
2023/09/13 08:19:04;;;;;;;61.40;37.88;;;;;;;;;;5018054;28;20469;-59
2023/09/13 08:21:31;;;;;;;65.20;39.78;;;;;;;;;;5017875;28;20413;-63
2023/09/13 08:24:00;;;;;;;66.23;39.87;;;;;;;;;;5009571;28;20401;-63
2023/09/13 08:26:27;;;;;;;63.53;39.38;;;;;;;;;;5017902;28;20774;-64
2023/09/13 08:28:54;;;;;;;66.05;39.47;;;;;;;;;;5019927;28;20411;-64
2023/09/13 08:31:23;;;;;;;65.72;38.90;;;;;;;;;;5019256;28;20425;-62
2023/09/13 08:33:50;;;;;;;62.13;39.45;;;;;;;;;;5018201;28;20521;-63
2023/09/13 08:36:17;;;;;;;59.90;38.60;;;;;;;;;;5023782;28;20419;-62
2023/09/13 08:38:44;;;;;;;63.63;39.72;;;;;;;;;;5025976;28;20880;-63
2023/09/13 08:41:13;;;;;;;58.70;37.95;;;;;;;;;;5032100;28;20419;-62
2023/09/13 08:43:41;;;;;;;63.08;38.13;;;;;;;;;;5024149;28;20832;-63
2023/09/13 08:46:08;;;;;;;60.67;37.58;;;;;;;;;;5030151;28;20418;-63
2023/09/13 08:48:36;;;;;;;56.72;36.35;;;;;;;;;;5023895;28;20403;-62
2023/09/13 08:51:04;;;;;;;58.63;36.67;;;;;;;;;;5029844;28;20414;-64
2023/09/13 08:53:31;;;;;;;59.40;38.03;;;;;;;;;;5025969;28;20431;-59
2023/09/13 08:55:58;;;;;;;64.32;38.72;;;;;;;;;;5019971;28;20832;-59
2023/09/13 08:58:27;;;;;;;71.20;39.63;;;;;;;;;;5026468;28;20422;-61
2023/09/13 09:00:55;;;;;;;59.93;36.60;;;;;;;;;;5033831;28;20445;-62
2023/09/13 09:03:24;;;;;;;61.08;37.17;;;;;;;;;;5030621;28;20411;-61
2023/09/13 09:05:52;;;;;;;58.97;34.57;;;;;;;;;;5030249;28;20463;-60
2023/09/13 09:08:19;;;;;;;61.25;36.60;;;;;;;;;;5026355;28;20422;-62
2023/09/13 09:10:47;;;;;;;56.33;35.17;;;;;;;;;;5027681;28;20417;-60
2023/09/13 09:13:15;;;;;;;58.10;35.07;;;;;;;;;;5028938;28;20411;-64
2023/09/13 09:15:44;;;;;;;53.08;33.40;;;;;;;;;;5028065;28;20491;-61
2023/09/13 09:18:11;;;;;;;57.42;33.75;;;;;;;;;;5028593;28;20414;-60
2023/09/13 09:20:39;;;;;;;54.00;33.08;;;;;;;;;;5025801;28;20475;-62
2023/09/13 09:23:06;;;;;;;52.95;33.15;;;;;;;;;;5026172;28;20468;-62
2023/09/13 09:25:34;;;;;;;53.25;32.25;;;;;;;;;;5007814;28;20430;-63
2023/09/13 09:28:04;;;;;;;48.08;30.77;;;;;;;;;;5018753;28;21023;-63
2023/09/13 09:30:32;;;;;;;47.10;29.42;;;;;;;;;;5020077;28;20547;-64
2023/09/13 09:33:04;;;;;;;45.08;27.77;;;;;;;;;;5018346;28;20421;-64
2023/09/13 09:35:31;;;;;;;40.20;26.38;;;;;;;;;;5016169;28;20423;-65
2023/09/13 09:37:58;;;;;;;39.67;25.95;;;;;;;;;;5020912;28;20423;-65
2023/09/13 09:40:25;;;;;;;38.90;26.38;;;;;;;;;;5030872;28;20422;-64
2023/09/13 09:42:53;;;;;;;43.17;28.43;;;;;;;;;;5032972;28;20411;-64
2023/09/13 09:45:20;;;;;;;38.92;27.30;;;;;;;;;;5030913;28;20437;-63
2023/09/13 09:47:48;;;;;;;48.78;29.08;;;;;;;;;;5030379;28;20809;-63
2023/09/13 09:50:16;;;;;;;45.13;29.90;;;;;;;;;;5021514;28;20410;-65
2023/09/13 09:52:43;;;;;;;55.45;33.03;;;;;;;;;;5021090;28;20412;-63
2023/09/13 09:55:15;;;;;;;54.72;33.97;;;;;;;;;;5020339;28;20839;-63
2023/09/13 09:57:46;;;;;;;44.53;30.38;;;;;;;;;;5013823;28;20407;-67
2023/09/13 10:00:14;;;;;;;40.33;29.25;;;;;;;;;;5016420;28;21132;-67
2023/09/13 10:02:41;;;;;;;41.92;28.73;;;;;;;;;;5015546;28;20423;-66
2023/09/13 10:05:08;;;;;;;43.00;29.20;;;;;;;;;;5020832;28;20419;-66
2023/09/13 10:07:41;;;;;;;38.45;27.98;;;;;;;;;;5014813;28;20456;-66
2023/09/13 10:10:09;;;;;;;36.45;26.35;;;;;;;;;;5020159;28;20474;-66
2023/09/13 10:12:43;;;;;;;39.22;26.33;;;;;;;;;;5026029;28;20428;-69
2023/09/13 10:15:11;;;;;;;35.93;25.77;;;;;;;;;;5015278;28;20609;-63
2023/09/13 10:17:39;;;;;;;36.03;26.25;;;;;;;;;;5017085;28;20434;-62
2023/09/13 10:20:07;;;;;;;24.50;17.02;;;;;;;;;;5018283;28;20417;-62
2023/09/13 10:22:35;;;;;;;22.73;16.43;;;;;;;;;;5022112;28;20419;-62
2023/09/13 10:25:05;;;;;;;24.20;17.15;;;;;;;;;;5015614;28;20440;-62
2023/09/13 10:27:33;;;;;;;51.75;30.42;;;;;;;;;;5023727;28;20419;-67
2023/09/13 10:30:02;;;;;;;37.10;22.35;;;;;;;;;;5026507;28;20813;-65
2023/09/13 10:32:32;;;;;;;37.58;23.08;;;;;;;;;;5024801;28;20433;-65
2023/09/13 10:35:02;;;;;;;38.13;23.00;;;;;;;;;;5026116;28;20484;-67
2023/09/13 10:37:33;;;;;;;21.00;14.75;;;;;;;;;;5026293;28;20505;-64
2023/09/13 10:40:09;;;;;;;24.45;16.52;;;;;;;;;;5026231;28;20419;-64
2023/09/13 10:42:39;;;;;;;27.42;16.17;;;;;;;;;;5023467;28;20500;-64
2023/09/13 10:45:07;;;;;;;20.73;13.07;;;;;;;;;;5017339;28;20408;-63
2023/09/13 10:47:37;;;;;;;13.55;8.57;;;;;;;;;;5024301;28;20411;-65
2023/09/13 10:50:04;;;;;;;12.55;7.53;;;;;;;;;;5016625;28;20416;-65
2023/09/13 10:52:32;;;;;;;7.13;6.03;;;;;;;;;;5022704;28;20425;-64
2023/09/13 10:55:00;;;;;;;10.10;6.35;;;;;;;;;;5018444;28;20433;-63
2023/09/13 10:57:27;;;;;;;10.15;6.47;;;;;;;;;;5020582;28;20411;-64
2023/09/13 10:59:56;;;;;;;9.00;6.75;;;;;;;;;;5027347;28;20498;-67
2023/09/13 11:02:23;;;;;;;15.47;8.83;;;;;;;;;;5023628;28;20411;-66
2023/09/13 11:04:50;;;;;;;11.95;7.22;;;;;;;;;;5027362;28;20499;-66
2023/09/13 11:07:18;;;;;;;8.10;6.20;;;;;;;;;;5024363;28;20492;-63
2023/09/13 11:09:46;;;;;;;6.85;5.70;;;;;;;;;;5025744;28;20421;-63
2023/09/13 11:12:13;;;;;;;7.63;6.03;;;;;;;;;;5019219;28;20856;-63
2023/09/13 11:14:46;;;;;;;7.55;5.90;;;;;;;;;;5019400;28;20922;-64
2023/09/13 11:17:37;;;;;;;6.80;5.68;;;;;;;;;;5017064;28;20426;-66
2023/09/13 11:20:27;;;;;;;8.45;5.57;;;;;;;;;;5017743;28;20429;-65
2023/09/13 11:23:01;;;;;;;6.18;5.32;;;;;;;;;;5020290;28;20412;-63
2023/09/13 11:25:31;;;;;;;7.82;5.10;;;;;;;;;;5012944;28;20457;-64
2023/09/13 11:27:58;;;;;;;9.18;4.85;;;;;;;;;;5020915;28;20494;-64
2023/09/13 11:30:40;;;;;;;5.57;3.78;;;;;;;;;;5016241;28;20420;-64
2023/09/13 11:33:07;;;;;;;5.40;4.40;;;;;;;;;;5016257;28;20417;-64
2023/09/13 11:35:35;;;;;;;5.72;4.43;;;;;;;;;;5021269;28;20491;-64
2023/09/13 11:38:03;;;;;;;6.47;4.60;;;;;;;;;;5021888;28;20411;-63
2023/09/13 11:40:30;;;;;;;6.15;4.13;;;;;;;;;;5022443;28;20426;-65
2023/09/13 11:42:59;;;;;;;5.80;3.70;;;;;;;;;;5011124;28;20948;-64
2023/09/13 11:45:30;;;;;;;5.57;3.50;;;;;;;;;;5019747;28;20490;-64
2023/09/13 11:47:57;;;;;;;4.43;3.17;;;;;;;;;;5012418;28;20847;-63
2023/09/13 11:50:24;;;;;;;5.38;3.15;;;;;;;;;;5018516;28;20458;-64
2023/09/13 11:53:09;;;;;;;3.37;2.90;;;;;;;;;;5015319;28;20417;-64
2023/09/13 11:55:39;;;;;;;4.60;3.22;;;;;;;;;;5017552;28;20438;-63
2023/09/13 11:58:06;;;;;;;4.82;3.40;;;;;;;;;;5018244;28;20410;-64
2023/09/13 12:00:41;;;;;;;5.23;3.10;;;;;;;;;;5020180;28;20448;-64
2023/09/13 12:03:08;;;;;;;6.25;3.30;;;;;;;;;;5018263;28;20495;-63
2023/09/13 12:05:38;;;;;;;5.03;2.92;;;;;;;;;;5020282;28;20413;-64
2023/09/13 12:08:05;;;;;;;6.97;3.47;;;;;;;;;;5012706;28;20503;-64
2023/09/13 12:10:36;;;;;;;3.20;2.50;;;;;;;;;;5020372;28;20508;-64
2023/09/13 12:13:03;;;;;;;3.35;2.60;;;;;;;;;;5023389;28;20500;-63
2023/09/13 12:15:30;;;;;;;4.70;2.92;;;;;;;;;;5018149;28;20926;-63
2023/09/13 12:18:03;;;;;;;5.07;2.90;;;;;;;;;;5020488;28;20923;-65
2023/09/13 12:20:32;;;;;;;4.20;2.78;;;;;;;;;;5018533;28;20419;-64
2023/09/13 12:22:59;;;;;;;5.30;2.90;;;;;;;;;;5020376;28;20445;-64
2023/09/13 12:25:26;;;;;;;4.68;2.88;;;;;;;;;;5018744;28;20422;-60
2023/09/13 12:27:55;;;;;;;4.43;2.72;;;;;;;;;;5019297;28;20478;-62
2023/09/13 12:30:22;;;;;;;4.20;2.80;;;;;;;;;;5021998;28;20469;-61
2023/09/13 12:32:51;;;;;;;4.00;2.63;;;;;;;;;;5022702;28;20467;-62
2023/09/13 12:35:18;;;;;;;2.88;2.20;;;;;;;;;;5016427;28;20524;-62
2023/09/13 12:37:57;;;;;;;3.47;2.22;;;;;;;;;;5020584;28;20409;-62
2023/09/13 12:40:27;;;;;;;3.13;2.10;;;;;;;;;;5021624;28;20423;-63
2023/09/13 12:42:56;;;;;;;3.88;2.20;;;;;;;;;;5017796;28;20468;-63
2023/09/13 12:45:23;;;;;;;3.80;2.50;;;;;;;;;;5017296;28;20409;-62
2023/09/13 12:47:51;;;;;;;4.25;2.40;;;;;;;;;;5019343;28;20420;-63
2023/09/13 12:50:18;;;;;;;3.97;2.30;;;;;;;;;;5022313;28;20428;-63
2023/09/13 12:52:45;;;;;;;5.28;2.13;;;;;;;;;;5021491;28;20417;-62
2023/09/13 12:55:12;;;;;;;3.42;2.05;;;;;;;;;;5018890;28;20523;-62
2023/09/13 12:57:39;;;;;;;3.63;2.10;;;;;;;;;;5019678;28;20422;-62
2023/09/13 13:00:11;;;;;;;4.97;2.30;;;;;;;;;;5024166;28;20813;-62
2023/09/13 13:02:39;;;;;;;3.80;1.70;;;;;;;;;;5023902;28;20417;-63
2023/09/13 13:05:06;;;;;;;4.10;1.90;;;;;;;;;;5020504;28;20439;-63
2023/09/13 13:07:40;;;;;;;5.07;2.05;;;;;;;;;;5021743;28;20444;-63
2023/09/13 13:10:09;;;;;;;4.75;2.10;;;;;;;;;;5020895;28;20411;-63
2023/09/13 13:12:36;;;;;;;4.32;2.00;;;;;;;;;;5020674;28;20511;-63
2023/09/13 13:15:03;;;;;;;4.55;1.85;;;;;;;;;;5025913;28;20543;-63
2023/09/13 13:17:34;;;;;;;4.28;1.90;;;;;;;;;;5021078;28;20421;-63
2023/09/13 13:20:06;;;;;;;4.43;1.90;;;;;;;;;;5027869;28;20423;-63
2023/09/13 13:22:33;;;;;;;3.97;1.60;;;;;;;;;;5023943;28;20416;-63
2023/09/13 13:25:00;;;;;;;3.03;1.48;;;;;;;;;;5025370;28;20565;-63
2023/09/13 13:27:28;;;;;;;3.88;1.58;;;;;;;;;;5022537;28;20783;-63
2023/09/13 13:29:55;;;;;;;3.63;1.67;;;;;;;;;;5028688;28;20539;-63
2023/09/13 13:32:22;;;;;;;3.22;1.60;;;;;;;;;;5029778;28;20411;-62
2023/09/13 13:34:51;;;;;;;3.00;1.60;;;;;;;;;;5028305;28;20428;-63
2023/09/13 13:37:18;;;;;;;2.65;1.30;;;;;;;;;;5016000;28;20936;-63
2023/09/13 13:39:45;;;;;;;3.53;1.38;;;;;;;;;;5027727;28;20494;-63
2023/09/13 13:42:12;;;;;;;2.40;1.47;;;;;;;;;;5026025;28;20415;-64
2023/09/13 13:44:39;;;;;;;3.90;1.40;;;;;;;;;;5031355;28;20414;-63
2023/09/13 13:47:06;;;;;;;3.17;1.33;;;;;;;;;;5025669;28;20411;-64
2023/09/13 13:49:33;;;;;;;4.15;1.60;;;;;;;;;;5029983;28;20734;-63
2023/09/13 13:52:01;;;;;;;2.85;1.70;;;;;;;;;;5028256;28;20411;-63
2023/09/13 13:54:28;;;;;;;3.83;1.50;;;;;;;;;;5020368;28;20486;-63
2023/09/13 13:56:55;;;;;;;5.88;1.70;;;;;;;;;;5020773;28;20440;-63
2023/09/13 13:59:24;;;;;;;3.75;1.45;;;;;;;;;;5026690;28;21411;-63
2023/09/13 14:01:51;;;;;;;4.03;1.67;;;;;;;;;;5025700;28;20411;-63
2023/09/13 14:04:18;;;;;;;2.15;1.10;;;;;;;;;;5027790;28;20481;-63
2023/09/13 14:06:45;;;;;;;2.78;1.45;;;;;;;;;;5024312;28;20915;-63
2023/09/13 14:09:16;;;;;;;2.88;1.40;;;;;;;;;;5027527;28;20414;-63